VCP629 LOWG-EGNX
Flight info
| Callsign | VCP629 |
|---|---|
| Flight time | 1h 48m |
| Altitude | 34000 |
| Route | MILGO DCT RENKA L610 INBED DCT BOMBI DCT BUB L608 DENUT L610 HEMEL |
| Aircraft | A320/M-SDE3FGHIRWY/LB1 |
Departure
| Time | 2026-04-23 08:10 |
|---|---|
| Airport | Graz Airport (LOWG) |
Arrival
| Time | 2026-04-23 09:59 |
|---|---|
| Airport | East Midlands Airport (EGNX) |
| Time | Latitude | Longitude | Altitude | Speed | Heading |
|---|---|---|---|---|---|
| 2026-04-23 07:37 | 46.99594 | 15.44309 | 1112 ft | 0 kts | 127° |
| 2026-04-23 07:59 | 46.99600 | 15.44298 | 1104 ft | 4 kts | 127° |
| 2026-04-23 07:59 | 46.99616 | 15.44266 | 1108 ft | 4 kts | 127° |
| 2026-04-23 08:00 | 46.99629 | 15.44242 | 1112 ft | 4 kts | 128° |
| 2026-04-23 08:00 | 46.99647 | 15.44216 | 1105 ft | 4 kts | 161° |
| 2026-04-23 08:00 | 46.99668 | 15.44208 | 1104 ft | 3 kts | 169° |
| 2026-04-23 08:00 | 46.99673 | 15.44207 | 1104 ft | 0 kts | 169° |
| 2026-04-23 08:04 | 46.99660 | 15.44211 | 1108 ft | 4 kts | 169° |
| 2026-04-23 08:05 | 46.99625 | 15.44220 | 1107 ft | 7 kts | 169° |
| 2026-04-23 08:05 | 46.99569 | 15.44236 | 1105 ft | 9 kts | 169° |
| 2026-04-23 08:05 | 46.99497 | 15.44256 | 1103 ft | 11 kts | 169° |
| 2026-04-23 08:05 | 46.99422 | 15.44223 | 1107 ft | 13 kts | 225° |
| 2026-04-23 08:06 | 46.99362 | 15.44131 | 1106 ft | 12 kts | 226° |
| 2026-04-23 08:06 | 46.99300 | 15.44037 | 1109 ft | 13 kts | 226° |
| 2026-04-23 08:06 | 46.99231 | 15.43943 | 1116 ft | 13 kts | 207° |
| 2026-04-23 08:06 | 46.99136 | 15.43956 | 1113 ft | 15 kts | 168° |
| 2026-04-23 08:07 | 46.99020 | 15.43990 | 1113 ft | 18 kts | 168° |
| 2026-04-23 08:07 | 46.98886 | 15.44028 | 1109 ft | 21 kts | 169° |
| 2026-04-23 08:07 | 46.98738 | 15.44069 | 1113 ft | 22 kts | 171° |
| 2026-04-23 08:07 | 46.98585 | 15.44103 | 1106 ft | 24 kts | 169° |
| 2026-04-23 08:08 | 46.98420 | 15.44151 | 1115 ft | 24 kts | 169° |
| 2026-04-23 08:08 | 46.98248 | 15.44198 | 1107 ft | 27 kts | 169° |
| 2026-04-23 08:08 | 46.98060 | 15.44249 | 1107 ft | 28 kts | 169° |
| 2026-04-23 08:08 | 46.97872 | 15.44302 | 1109 ft | 17 kts | 166° |
| 2026-04-23 08:09 | 46.97800 | 15.44351 | 1116 ft | 9 kts | 220° |
| 2026-04-23 08:09 | 46.97830 | 15.44316 | 1112 ft | 7 kts | 351° |
| 2026-04-23 08:09 | 46.97848 | 15.44312 | 1111 ft | 3 kts | 349° |
| 2026-04-23 08:09 | 46.97930 | 15.44289 | 1107 ft | 37 kts | 349° |
| 2026-04-23 08:10 | 46.98410 | 15.44154 | 1115 ft | 100 kts | 349° |
| 2026-04-23 08:10 | 46.99266 | 15.43916 | 1115 ft | 147 kts | 349° |
| 2026-04-23 08:10 | 47.01497 | 15.43289 | 2113 ft | 165 kts | 347° |
| 2026-04-23 08:11 | 47.02617 | 15.42975 | 2843 ft | 165 kts | 347° |
| 2026-04-23 08:11 | 47.03797 | 15.42642 | 3183 ft | 182 kts | 347° |
| 2026-04-23 08:11 | 47.05126 | 15.42265 | 3395 ft | 207 kts | 347° |
| 2026-04-23 08:11 | 47.06599 | 15.41687 | 3706 ft | 231 kts | 332° |
| 2026-04-23 08:12 | 47.07953 | 15.40265 | 4267 ft | 246 kts | 319° |
| 2026-04-23 08:12 | 47.09187 | 15.38492 | 5111 ft | 249 kts | 315° |
| 2026-04-23 08:12 | 47.10391 | 15.36645 | 5987 ft | 251 kts | 316° |
| 2026-04-23 08:12 | 47.11600 | 15.34815 | 6919 ft | 250 kts | 318° |
| 2026-04-23 08:13 | 47.12819 | 15.33025 | 7761 ft | 253 kts | 319° |
| 2026-04-23 08:13 | 47.14114 | 15.31178 | 8504 ft | 259 kts | 321° |
| 2026-04-23 08:13 | 47.15417 | 15.29360 | 9211 ft | 265 kts | 321° |
| 2026-04-23 08:13 | 47.16798 | 15.27460 | 9910 ft | 271 kts | 322° |
| 2026-04-23 08:14 | 47.18188 | 15.25562 | 10366 ft | 286 kts | 322° |
| 2026-04-23 08:14 | 47.19710 | 15.23501 | 10554 ft | 309 kts | 322° |
| 2026-04-23 08:14 | 47.21348 | 15.21285 | 10684 ft | 331 kts | 322° |
| 2026-04-23 08:14 | 47.23081 | 15.18925 | 10992 ft | 345 kts | 322° |
| 2026-04-23 08:15 | 47.24859 | 15.16488 | 11551 ft | 351 kts | 321° |
| 2026-04-23 08:15 | 47.26648 | 15.14026 | 12152 ft | 355 kts | 321° |
| 2026-04-23 08:15 | 47.28459 | 15.11537 | 12742 ft | 358 kts | 321° |
| 2026-04-23 08:15 | 47.30299 | 15.09015 | 13353 ft | 361 kts | 322° |
| 2026-04-23 08:16 | 47.32194 | 15.06567 | 13892 ft | 364 kts | 324° |
| 2026-04-23 08:16 | 47.34169 | 15.04184 | 14414 ft | 368 kts | 326° |
| 2026-04-23 08:16 | 47.36178 | 15.01831 | 14934 ft | 370 kts | 326° |
| 2026-04-23 08:16 | 47.38205 | 14.99470 | 15439 ft | 372 kts | 326° |
| 2026-04-23 08:17 | 47.40241 | 14.97083 | 15910 ft | 376 kts | 326° |
| 2026-04-23 08:17 | 47.42295 | 14.94646 | 16416 ft | 380 kts | 325° |
| 2026-04-23 08:17 | 47.44335 | 14.92198 | 16902 ft | 383 kts | 325° |
| 2026-04-23 08:17 | 47.46409 | 14.89695 | 17429 ft | 387 kts | 325° |
| 2026-04-23 08:18 | 47.48507 | 14.87156 | 17961 ft | 391 kts | 326° |
| 2026-04-23 08:18 | 47.50618 | 14.84600 | 18489 ft | 395 kts | 325° |
| 2026-04-23 08:18 | 47.52758 | 14.82010 | 18949 ft | 400 kts | 325° |
| 2026-04-23 08:18 | 47.54915 | 14.79397 | 19429 ft | 403 kts | 326° |
| 2026-04-23 08:19 | 47.57095 | 14.76756 | 19928 ft | 406 kts | 325° |
| 2026-04-23 08:19 | 47.59289 | 14.74093 | 20427 ft | 409 kts | 325° |
| 2026-04-23 08:19 | 47.61499 | 14.71408 | 20903 ft | 412 kts | 325° |
| 2026-04-23 08:19 | 47.63726 | 14.68705 | 21355 ft | 415 kts | 325° |
| 2026-04-23 08:20 | 47.65968 | 14.65977 | 21785 ft | 418 kts | 325° |
| 2026-04-23 08:20 | 47.68221 | 14.63227 | 22180 ft | 420 kts | 325° |
| 2026-04-23 08:20 | 47.70488 | 14.60458 | 22562 ft | 423 kts | 325° |
| 2026-04-23 08:20 | 47.72768 | 14.57675 | 22960 ft | 426 kts | 325° |
| 2026-04-23 08:21 | 47.75062 | 14.54873 | 23345 ft | 428 kts | 324° |
| 2026-04-23 08:21 | 47.77366 | 14.52048 | 23715 ft | 431 kts | 324° |
| 2026-04-23 08:21 | 47.79688 | 14.49195 | 24065 ft | 433 kts | 324° |
| 2026-04-23 08:21 | 47.82021 | 14.46329 | 24352 ft | 436 kts | 324° |
| 2026-04-23 08:22 | 47.84368 | 14.43447 | 24640 ft | 440 kts | 325° |
| 2026-04-23 08:22 | 47.86736 | 14.40540 | 24958 ft | 442 kts | 325° |
| 2026-04-23 08:22 | 47.89113 | 14.37615 | 25288 ft | 444 kts | 325° |
| 2026-04-23 08:22 | 47.91503 | 14.34669 | 25612 ft | 446 kts | 325° |
| 2026-04-23 08:23 | 47.93897 | 14.31718 | 25941 ft | 448 kts | 325° |
| 2026-04-23 08:23 | 47.96269 | 14.28789 | 26353 ft | 448 kts | 325° |
| 2026-04-23 08:23 | 47.98663 | 14.25821 | 26808 ft | 446 kts | 325° |
| 2026-04-23 08:23 | 48.01052 | 14.22856 | 27311 ft | 445 kts | 325° |
| 2026-04-23 08:24 | 48.03424 | 14.19911 | 27779 ft | 443 kts | 325° |
| 2026-04-23 08:24 | 48.05797 | 14.16962 | 28229 ft | 442 kts | 326° |
| 2026-04-23 08:24 | 48.08162 | 14.14020 | 28682 ft | 442 kts | 325° |
| 2026-04-23 08:24 | 48.10520 | 14.11081 | 29120 ft | 442 kts | 326° |
| 2026-04-23 08:25 | 48.12885 | 14.08130 | 29586 ft | 441 kts | 326° |
| 2026-04-23 08:25 | 48.15232 | 14.05194 | 30070 ft | 440 kts | 326° |
| 2026-04-23 08:25 | 48.17585 | 14.02248 | 30526 ft | 439 kts | 326° |
| 2026-04-23 08:25 | 48.19930 | 13.99313 | 30918 ft | 439 kts | 326° |
| 2026-04-23 08:26 | 48.22273 | 13.96379 | 31320 ft | 438 kts | 326° |
| 2026-04-23 08:26 | 48.24602 | 13.93456 | 31717 ft | 437 kts | 326° |
| 2026-04-23 08:26 | 48.26938 | 13.90518 | 32117 ft | 437 kts | 326° |
| 2026-04-23 08:26 | 48.29264 | 13.87591 | 32533 ft | 436 kts | 326° |
| 2026-04-23 08:27 | 48.31583 | 13.84668 | 32920 ft | 435 kts | 326° |
| 2026-04-23 08:27 | 48.33902 | 13.81740 | 33284 ft | 436 kts | 326° |
| 2026-04-23 08:27 | 48.36224 | 13.78806 | 33665 ft | 436 kts | 326° |
| 2026-04-23 08:27 | 48.38544 | 13.75873 | 34077 ft | 435 kts | 326° |
| 2026-04-23 08:28 | 48.40839 | 13.72974 | 34333 ft | 436 kts | 326° |
| 2026-04-23 08:28 | 48.43215 | 13.69976 | 34360 ft | 444 kts | 326° |
| 2026-04-23 08:28 | 48.47977 | 13.63955 | 34356 ft | 454 kts | 326° |
| 2026-04-23 08:29 | 48.52809 | 13.57789 | 34360 ft | 456 kts | 326° |
| 2026-04-23 08:29 | 48.57372 | 13.51065 | 34349 ft | 467 kts | 312° |
| 2026-04-23 08:30 | 48.60476 | 13.42297 | 34359 ft | 481 kts | 294° |
| 2026-04-23 08:30 | 48.62753 | 13.32773 | 34360 ft | 482 kts | 294° |
| 2026-04-23 08:31 | 48.65039 | 13.23241 | 34358 ft | 482 kts | 294° |
| 2026-04-23 08:31 | 48.67321 | 13.13695 | 34355 ft | 482 kts | 294° |
| 2026-04-23 08:32 | 48.69593 | 13.04136 | 34344 ft | 483 kts | 294° |
| 2026-04-23 08:32 | 48.71851 | 12.94620 | 34347 ft | 483 kts | 294° |
| 2026-04-23 08:33 | 48.74113 | 12.85002 | 34348 ft | 484 kts | 294° |
| 2026-04-23 08:33 | 48.76356 | 12.75390 | 34355 ft | 484 kts | 294° |
| 2026-04-23 08:34 | 48.78587 | 12.65750 | 34358 ft | 484 kts | 294° |
| 2026-04-23 08:34 | 48.80814 | 12.56115 | 34362 ft | 484 kts | 294° |
| 2026-04-23 08:35 | 48.83045 | 12.46470 | 34369 ft | 484 kts | 294° |
| 2026-04-23 08:35 | 48.85263 | 12.36807 | 34369 ft | 485 kts | 293° |
| 2026-04-23 08:36 | 48.87465 | 12.27130 | 34342 ft | 485 kts | 293° |
| 2026-04-23 08:36 | 48.90080 | 12.17752 | 34347 ft | 480 kts | 302° |
| 2026-04-23 08:37 | 48.93090 | 12.08762 | 34349 ft | 480 kts | 301° |
| 2026-04-23 08:37 | 48.96103 | 11.99686 | 34352 ft | 481 kts | 301° |
| 2026-04-23 08:38 | 48.99115 | 11.90605 | 34347 ft | 481 kts | 301° |
| 2026-04-23 08:38 | 49.02123 | 11.81499 | 34351 ft | 482 kts | 301° |
| 2026-04-23 08:39 | 49.05129 | 11.72343 | 34356 ft | 482 kts | 301° |
| 2026-04-23 08:39 | 49.08125 | 11.63204 | 34355 ft | 482 kts | 301° |
| 2026-04-23 08:40 | 49.11117 | 11.54041 | 34341 ft | 482 kts | 301° |
| 2026-04-23 08:40 | 49.14101 | 11.44859 | 34345 ft | 483 kts | 301° |
| 2026-04-23 08:41 | 49.17084 | 11.35646 | 34345 ft | 483 kts | 300° |
| 2026-04-23 08:41 | 49.20068 | 11.26424 | 34346 ft | 483 kts | 302° |
| 2026-04-23 08:42 | 49.23898 | 11.18186 | 34358 ft | 471 kts | 319° |
| 2026-04-23 08:42 | 49.28387 | 11.10974 | 34353 ft | 471 kts | 319° |
| 2026-04-23 08:43 | 49.32900 | 11.03665 | 34361 ft | 472 kts | 318° |
| 2026-04-23 08:43 | 49.37391 | 10.96283 | 34361 ft | 475 kts | 314° |
| 2026-04-23 08:44 | 49.40899 | 10.87581 | 34366 ft | 484 kts | 300° |
| 2026-04-23 08:44 | 49.43895 | 10.78302 | 34384 ft | 485 kts | 300° |
| 2026-04-23 08:45 | 49.46892 | 10.69080 | 34369 ft | 486 kts | 300° |
| 2026-04-23 08:45 | 49.49413 | 10.61282 | 34376 ft | 487 kts | 300° |
| 2026-04-23 08:46 | 49.52413 | 10.51938 | 34380 ft | 487 kts | 300° |
| 2026-04-23 08:46 | 49.55408 | 10.42573 | 34393 ft | 487 kts | 300° |
| 2026-04-23 08:47 | 49.58395 | 10.33204 | 34383 ft | 488 kts | 300° |
| 2026-04-23 08:47 | 49.61366 | 10.23854 | 34374 ft | 489 kts | 300° |
| 2026-04-23 08:48 | 49.64363 | 10.14408 | 34379 ft | 490 kts | 299° |
| 2026-04-23 08:48 | 49.67354 | 10.04942 | 34379 ft | 490 kts | 299° |
| 2026-04-23 08:49 | 49.70327 | 9.95463 | 34372 ft | 490 kts | 299° |
| 2026-04-23 08:49 | 49.73298 | 9.85967 | 34375 ft | 491 kts | 298° |
| 2026-04-23 08:50 | 49.76265 | 9.76446 | 34370 ft | 491 kts | 298° |
| 2026-04-23 08:50 | 49.79221 | 9.66920 | 34366 ft | 491 kts | 298° |
| 2026-04-23 08:51 | 49.82158 | 9.57425 | 34374 ft | 491 kts | 298° |
| 2026-04-23 08:51 | 49.85096 | 9.47878 | 34365 ft | 492 kts | 298° |
| 2026-04-23 08:52 | 49.88038 | 9.38300 | 34370 ft | 492 kts | 298° |
| 2026-04-23 08:52 | 49.90971 | 9.28716 | 34379 ft | 492 kts | 298° |
| 2026-04-23 08:53 | 49.93895 | 9.19093 | 34379 ft | 492 kts | 298° |
| 2026-04-23 08:53 | 49.96812 | 9.09456 | 34388 ft | 493 kts | 297° |
| 2026-04-23 08:54 | 49.99725 | 8.99819 | 34396 ft | 493 kts | 297° |
| 2026-04-23 08:54 | 50.02634 | 8.90171 | 34408 ft | 493 kts | 297° |
| 2026-04-23 08:55 | 50.05512 | 8.80495 | 34412 ft | 493 kts | 294° |
| 2026-04-23 08:55 | 50.07789 | 8.70394 | 34419 ft | 494 kts | 290° |
| 2026-04-23 08:56 | 50.10004 | 8.60260 | 34417 ft | 494 kts | 290° |
| 2026-04-23 08:56 | 50.12220 | 8.50126 | 34412 ft | 494 kts | 290° |
| 2026-04-23 08:57 | 50.14416 | 8.40035 | 34426 ft | 495 kts | 290° |
| 2026-04-23 08:57 | 50.16608 | 8.29851 | 34423 ft | 495 kts | 290° |
| 2026-04-23 08:58 | 50.18786 | 8.19665 | 34422 ft | 495 kts | 289° |
| 2026-04-23 08:58 | 50.20956 | 8.09485 | 34418 ft | 494 kts | 289° |
| 2026-04-23 08:59 | 50.23126 | 7.99278 | 34416 ft | 494 kts | 289° |
| 2026-04-23 08:59 | 50.25285 | 7.89092 | 34393 ft | 494 kts | 289° |
| 2026-04-23 09:00 | 50.27435 | 7.78887 | 34409 ft | 494 kts | 289° |
| 2026-04-23 09:00 | 50.29560 | 7.68743 | 34412 ft | 494 kts | 288° |
| 2026-04-23 09:01 | 50.31699 | 7.58457 | 34413 ft | 494 kts | 288° |
| 2026-04-23 09:01 | 50.33803 | 7.48308 | 34414 ft | 494 kts | 288° |
| 2026-04-23 09:02 | 50.35908 | 7.38085 | 34415 ft | 494 kts | 288° |
| 2026-04-23 09:02 | 50.38010 | 7.27828 | 34418 ft | 494 kts | 288° |
| 2026-04-23 09:03 | 50.40099 | 7.17585 | 34418 ft | 494 kts | 288° |
| 2026-04-23 09:03 | 50.42186 | 7.07318 | 34418 ft | 494 kts | 288° |
| 2026-04-23 09:04 | 50.44266 | 6.97043 | 34403 ft | 494 kts | 288° |
| 2026-04-23 09:04 | 50.46329 | 6.86768 | 34406 ft | 494 kts | 287° |
| 2026-04-23 09:05 | 50.48380 | 6.76461 | 34396 ft | 494 kts | 287° |
| 2026-04-23 09:05 | 50.50423 | 6.66165 | 34401 ft | 494 kts | 287° |
| 2026-04-23 09:06 | 50.52470 | 6.55837 | 34403 ft | 495 kts | 287° |
| 2026-04-23 09:06 | 50.54505 | 6.45503 | 34401 ft | 495 kts | 286° |
| 2026-04-23 09:07 | 50.56529 | 6.35149 | 34396 ft | 496 kts | 286° |
| 2026-04-23 09:07 | 50.58534 | 6.24828 | 34401 ft | 496 kts | 286° |
| 2026-04-23 09:08 | 50.60547 | 6.14437 | 34407 ft | 496 kts | 286° |
| 2026-04-23 09:08 | 50.62555 | 6.04036 | 34414 ft | 497 kts | 285° |
| 2026-04-23 09:09 | 50.64541 | 5.93613 | 34410 ft | 497 kts | 285° |
| 2026-04-23 09:09 | 50.66526 | 5.83158 | 34427 ft | 498 kts | 285° |
| 2026-04-23 09:10 | 50.69496 | 5.67444 | 34436 ft | 498 kts | 285° |
| 2026-04-23 09:11 | 50.71468 | 5.56948 | 34456 ft | 499 kts | 285° |
| 2026-04-23 09:11 | 50.73429 | 5.46438 | 34443 ft | 499 kts | 285° |
| 2026-04-23 09:12 | 50.75383 | 5.35919 | 34453 ft | 499 kts | 285° |
| 2026-04-23 09:12 | 50.77325 | 5.25392 | 34442 ft | 499 kts | 284° |
| 2026-04-23 09:13 | 50.79258 | 5.14839 | 34458 ft | 499 kts | 284° |
| 2026-04-23 09:13 | 50.81169 | 5.04338 | 34458 ft | 499 kts | 284° |
| 2026-04-23 09:14 | 50.83092 | 4.93769 | 34460 ft | 500 kts | 284° |
| 2026-04-23 09:14 | 50.84998 | 4.83210 | 34463 ft | 500 kts | 284° |
| 2026-04-23 09:15 | 50.86895 | 4.72617 | 34444 ft | 500 kts | 284° |
| 2026-04-23 09:15 | 50.88776 | 4.62027 | 34478 ft | 500 kts | 283° |
| 2026-04-23 09:16 | 50.91131 | 4.51669 | 34461 ft | 502 kts | 297° |
| 2026-04-23 09:16 | 50.94722 | 4.42162 | 34457 ft | 503 kts | 301° |
| 2026-04-23 09:17 | 50.98347 | 4.32748 | 34459 ft | 503 kts | 301° |
| 2026-04-23 09:17 | 51.01974 | 4.23228 | 34458 ft | 503 kts | 301° |
| 2026-04-23 09:18 | 51.05594 | 4.13687 | 34469 ft | 504 kts | 301° |
| 2026-04-23 09:18 | 51.09204 | 4.04148 | 34468 ft | 504 kts | 301° |
| 2026-04-23 09:19 | 51.12817 | 3.94575 | 34462 ft | 504 kts | 300° |
| 2026-04-23 09:19 | 51.16410 | 3.85020 | 34465 ft | 504 kts | 300° |
| 2026-04-23 09:20 | 51.20008 | 3.75428 | 34463 ft | 503 kts | 300° |
| 2026-04-23 09:20 | 51.23293 | 3.65585 | 34459 ft | 502 kts | 289° |
| 2026-04-23 09:21 | 51.25063 | 3.54888 | 34457 ft | 499 kts | 279° |
| 2026-04-23 09:21 | 51.26497 | 3.44017 | 34452 ft | 500 kts | 279° |
| 2026-04-23 09:22 | 51.27925 | 3.33149 | 34468 ft | 500 kts | 279° |
| 2026-04-23 09:22 | 51.29327 | 3.22248 | 34470 ft | 500 kts | 279° |
| 2026-04-23 09:23 | 51.30709 | 3.11362 | 34466 ft | 500 kts | 279° |
| 2026-04-23 09:23 | 51.32073 | 3.00552 | 34475 ft | 500 kts | 278° |
| 2026-04-23 09:24 | 51.33441 | 2.89649 | 34474 ft | 499 kts | 278° |
| 2026-04-23 09:24 | 51.34790 | 2.78758 | 34488 ft | 498 kts | 279° |
| 2026-04-23 09:25 | 51.36136 | 2.67889 | 34479 ft | 497 kts | 279° |
| 2026-04-23 09:25 | 51.37472 | 2.57055 | 34487 ft | 496 kts | 278° |
| 2026-04-23 09:26 | 51.38798 | 2.46213 | 34481 ft | 496 kts | 278° |
| 2026-04-23 09:26 | 51.40109 | 2.35381 | 34486 ft | 495 kts | 279° |
| 2026-04-23 09:27 | 51.41401 | 2.24565 | 34506 ft | 493 kts | 279° |
| 2026-04-23 09:27 | 51.42709 | 2.13811 | 34499 ft | 491 kts | 279° |
| 2026-04-23 09:28 | 51.44019 | 2.03080 | 34495 ft | 490 kts | 279° |
| 2026-04-23 09:28 | 51.45298 | 1.92407 | 34491 ft | 489 kts | 279° |
| 2026-04-23 09:29 | 51.46557 | 1.81705 | 34509 ft | 487 kts | 280° |
| 2026-04-23 09:29 | 51.47580 | 1.72840 | 34509 ft | 485 kts | 279° |
| 2026-04-23 09:30 | 51.48785 | 1.62224 | 34502 ft | 483 kts | 279° |
| 2026-04-23 09:30 | 51.49985 | 1.51624 | 34499 ft | 482 kts | 279° |
| 2026-04-23 09:31 | 51.51180 | 1.41060 | 34496 ft | 481 kts | 281° |
| 2026-04-23 09:31 | 51.52362 | 1.30527 | 34497 ft | 478 kts | 281° |
| 2026-04-23 09:32 | 51.53525 | 1.20028 | 34506 ft | 476 kts | 280° |
| 2026-04-23 09:32 | 51.54671 | 1.09555 | 34498 ft | 475 kts | 280° |
| 2026-04-23 09:33 | 51.55806 | 0.99093 | 34493 ft | 475 kts | 280° |
| 2026-04-23 09:33 | 51.56938 | 0.88656 | 34512 ft | 472 kts | 281° |
| 2026-04-23 09:34 | 51.58056 | 0.78278 | 34522 ft | 469 kts | 281° |
| 2026-04-23 09:34 | 51.59143 | 0.68007 | 34509 ft | 469 kts | 281° |
| 2026-04-23 09:35 | 51.60230 | 0.57671 | 34509 ft | 468 kts | 281° |
| 2026-04-23 09:35 | 51.61308 | 0.47360 | 34498 ft | 467 kts | 282° |
| 2026-04-23 09:36 | 51.62378 | 0.37072 | 34527 ft | 464 kts | 282° |
| 2026-04-23 09:36 | 51.63425 | 0.26879 | 34517 ft | 460 kts | 282° |
| 2026-04-23 09:37 | 51.64524 | 0.16771 | 34177 ft | 454 kts | 287° |
| 2026-04-23 09:37 | 51.65497 | 0.11957 | 33633 ft | 452 kts | 295° |
| 2026-04-23 09:37 | 51.66785 | 0.07315 | 32655 ft | 456 kts | 297° |
| 2026-04-23 09:37 | 51.68112 | 0.02661 | 31776 ft | 458 kts | 298° |
| 2026-04-23 09:38 | 51.69446 | -0.02014 | 30872 ft | 461 kts | 298° |
| 2026-04-23 09:38 | 51.70777 | -0.06713 | 30226 ft | 456 kts | 298° |
| 2026-04-23 09:38 | 51.72083 | -0.11366 | 29211 ft | 452 kts | 298° |
| 2026-04-23 09:38 | 51.73366 | -0.15973 | 27535 ft | 453 kts | 297° |
| 2026-04-23 09:39 | 51.74655 | -0.20612 | 26464 ft | 453 kts | 297° |
| 2026-04-23 09:39 | 51.75951 | -0.25286 | 25309 ft | 458 kts | 297° |
| 2026-04-23 09:39 | 51.77245 | -0.29959 | 24595 ft | 454 kts | 297° |
| 2026-04-23 09:39 | 51.78548 | -0.34518 | 23743 ft | 449 kts | 300° |
| 2026-04-23 09:40 | 51.80221 | -0.38806 | 22860 ft | 441 kts | 309° |
| 2026-04-23 09:40 | 51.82192 | -0.42464 | 22148 ft | 433 kts | 317° |
| 2026-04-23 09:40 | 51.84497 | -0.45609 | 21629 ft | 434 kts | 326° |
| 2026-04-23 09:40 | 51.87042 | -0.48230 | 21170 ft | 434 kts | 331° |
| 2026-04-23 09:41 | 51.89623 | -0.50742 | 20625 ft | 433 kts | 330° |
| 2026-04-23 09:41 | 51.92204 | -0.53247 | 20107 ft | 430 kts | 331° |
| 2026-04-23 09:41 | 51.94767 | -0.55741 | 19578 ft | 429 kts | 331° |
| 2026-04-23 09:41 | 51.97321 | -0.58239 | 19052 ft | 427 kts | 331° |
| 2026-04-23 09:42 | 51.99857 | -0.60722 | 18498 ft | 425 kts | 331° |
| 2026-04-23 09:42 | 52.02389 | -0.63202 | 17968 ft | 423 kts | 330° |
| 2026-04-23 09:42 | 52.04903 | -0.65665 | 17470 ft | 421 kts | 330° |
| 2026-04-23 09:42 | 52.07406 | -0.68123 | 16958 ft | 419 kts | 330° |
| 2026-04-23 09:43 | 52.09892 | -0.70575 | 16444 ft | 417 kts | 330° |
| 2026-04-23 09:43 | 52.12370 | -0.73022 | 15933 ft | 415 kts | 330° |
| 2026-04-23 09:43 | 52.14832 | -0.75454 | 15422 ft | 413 kts | 330° |
| 2026-04-23 09:43 | 52.17249 | -0.77843 | 14921 ft | 410 kts | 330° |
| 2026-04-23 09:44 | 52.19689 | -0.80255 | 14426 ft | 409 kts | 330° |
| 2026-04-23 09:44 | 52.22118 | -0.82659 | 13876 ft | 407 kts | 330° |
| 2026-04-23 09:44 | 52.24518 | -0.85035 | 13512 ft | 396 kts | 330° |
| 2026-04-23 09:44 | 52.26817 | -0.87312 | 13375 ft | 378 kts | 330° |
| 2026-04-23 09:45 | 52.29013 | -0.89490 | 13236 ft | 362 kts | 329° |
| 2026-04-23 09:45 | 52.31123 | -0.91579 | 13113 ft | 347 kts | 329° |
| 2026-04-23 09:45 | 52.33154 | -0.93590 | 12976 ft | 335 kts | 329° |
| 2026-04-23 09:45 | 52.35123 | -0.95543 | 12854 ft | 324 kts | 329° |
| 2026-04-23 09:46 | 52.37028 | -0.97435 | 12693 ft | 316 kts | 329° |
| 2026-04-23 09:46 | 52.38892 | -0.99272 | 12198 ft | 319 kts | 330° |
| 2026-04-23 09:46 | 52.40790 | -1.01058 | 12042 ft | 311 kts | 330° |
| 2026-04-23 09:46 | 52.42541 | -1.03082 | 11780 ft | 306 kts | 315° |
| 2026-04-23 09:47 | 52.44005 | -1.05621 | 11348 ft | 307 kts | 311° |
| 2026-04-23 09:47 | 52.45433 | -1.08227 | 11015 ft | 306 kts | 311° |
| 2026-04-23 09:47 | 52.46838 | -1.10816 | 10665 ft | 301 kts | 310° |
| 2026-04-23 09:47 | 52.48230 | -1.13383 | 10034 ft | 301 kts | 310° |
| 2026-04-23 09:48 | 52.49622 | -1.15947 | 9367 ft | 301 kts | 311° |
| 2026-04-23 09:48 | 52.51016 | -1.18526 | 8880 ft | 302 kts | 311° |
| 2026-04-23 09:48 | 52.52400 | -1.21102 | 8581 ft | 299 kts | 311° |
| 2026-04-23 09:48 | 52.53778 | -1.23647 | 8274 ft | 297 kts | 311° |
| 2026-04-23 09:49 | 52.55121 | -1.26146 | 7974 ft | 294 kts | 311° |
| 2026-04-23 09:49 | 52.56470 | -1.28670 | 7633 ft | 294 kts | 311° |
| 2026-04-23 09:49 | 52.57817 | -1.31196 | 7326 ft | 293 kts | 311° |
| 2026-04-23 09:49 | 52.59156 | -1.33720 | 7049 ft | 291 kts | 311° |
| 2026-04-23 09:50 | 52.60462 | -1.36188 | 6858 ft | 279 kts | 310° |
| 2026-04-23 09:50 | 52.61700 | -1.38530 | 6731 ft | 263 kts | 310° |
| 2026-04-23 09:50 | 52.62871 | -1.40751 | 6603 ft | 253 kts | 310° |
| 2026-04-23 09:50 | 52.64012 | -1.42912 | 6428 ft | 247 kts | 310° |
| 2026-04-23 09:51 | 52.65128 | -1.45030 | 6210 ft | 244 kts | 311° |
| 2026-04-23 09:51 | 52.66232 | -1.47133 | 5950 ft | 242 kts | 310° |
| 2026-04-23 09:51 | 52.67333 | -1.49233 | 5664 ft | 242 kts | 310° |
| 2026-04-23 09:51 | 52.68431 | -1.51320 | 5372 ft | 242 kts | 310° |
| 2026-04-23 09:52 | 52.69540 | -1.53409 | 5110 ft | 241 kts | 310° |
| 2026-04-23 09:52 | 52.70643 | -1.55485 | 4861 ft | 240 kts | 311° |
| 2026-04-23 09:52 | 52.71718 | -1.57526 | 4458 ft | 238 kts | 310° |
| 2026-04-23 09:52 | 52.72797 | -1.59584 | 4055 ft | 236 kts | 311° |
| 2026-04-23 09:53 | 52.73861 | -1.61629 | 3750 ft | 234 kts | 310° |
| 2026-04-23 09:53 | 52.74955 | -1.63614 | 3348 ft | 232 kts | 323° |
| 2026-04-23 09:53 | 52.76400 | -1.64623 | 3069 ft | 224 kts | 359° |
| 2026-04-23 09:53 | 52.77883 | -1.64185 | 2802 ft | 214 kts | 32° |
| 2026-04-23 09:54 | 52.79131 | -1.62931 | 2569 ft | 208 kts | 39° |
| 2026-04-23 09:54 | 52.80294 | -1.61593 | 2430 ft | 199 kts | 40° |
| 2026-04-23 09:54 | 52.81341 | -1.60194 | 2261 ft | 188 kts | 54° |
| 2026-04-23 09:54 | 52.82118 | -1.58504 | 2132 ft | 183 kts | 62° |
| 2026-04-23 09:55 | 52.82590 | -1.56591 | 2045 ft | 179 kts | 82° |
| 2026-04-23 09:55 | 52.82673 | -1.54564 | 2009 ft | 176 kts | 90° |
| 2026-04-23 09:55 | 52.82714 | -1.52539 | 2007 ft | 176 kts | 89° |
| 2026-04-23 09:55 | 52.82756 | -1.50523 | 2016 ft | 172 kts | 88° |
| 2026-04-23 09:56 | 52.82794 | -1.48640 | 1974 ft | 156 kts | 89° |
| 2026-04-23 09:56 | 52.82829 | -1.46903 | 1827 ft | 144 kts | 88° |
| 2026-04-23 09:56 | 52.82860 | -1.45307 | 1659 ft | 137 kts | 87° |
| 2026-04-23 09:56 | 52.82891 | -1.43745 | 1478 ft | 134 kts | 88° |
| 2026-04-23 09:57 | 52.82920 | -1.42217 | 1292 ft | 132 kts | 87° |
| 2026-04-23 09:57 | 52.82947 | -1.40693 | 1112 ft | 132 kts | 85° |
| 2026-04-23 09:57 | 52.82980 | -1.39168 | 908 ft | 132 kts | 86° |
| 2026-04-23 09:57 | 52.83009 | -1.37663 | 726 ft | 132 kts | 86° |
| 2026-04-23 09:58 | 52.83036 | -1.36126 | 526 ft | 132 kts | 87° |
| 2026-04-23 09:58 | 52.83068 | -1.34611 | 358 ft | 131 kts | 86° |
| 2026-04-23 09:58 | 52.83094 | -1.33219 | 308 ft | 105 kts | 89° |
| 2026-04-23 09:58 | 52.83113 | -1.32281 | 301 ft | 63 kts | 88° |
| 2026-04-23 09:59 | 52.83121 | -1.31749 | 308 ft | 37 kts | 89° |
| 2026-04-23 09:59 | 52.83128 | -1.31422 | 307 ft | 20 kts | 88° |
| 2026-04-23 09:59 | 52.83075 | -1.31314 | 304 ft | 14 kts | 177° |
| 2026-04-23 09:59 | 52.82974 | -1.31331 | 303 ft | 14 kts | 221° |
| 2026-04-23 10:00 | 52.82951 | -1.31491 | 301 ft | 16 kts | 268° |
| 2026-04-23 10:00 | 52.82951 | -1.31686 | 301 ft | 18 kts | 270° |
| 2026-04-23 10:00 | 52.82949 | -1.31908 | 301 ft | 20 kts | 266° |
| 2026-04-23 10:00 | 52.82943 | -1.32157 | 301 ft | 23 kts | 268° |
| 2026-04-23 10:01 | 52.82938 | -1.32435 | 301 ft | 25 kts | 268° |
| 2026-04-23 10:01 | 52.82933 | -1.32742 | 301 ft | 28 kts | 269° |
| 2026-04-23 10:01 | 52.82927 | -1.33065 | 302 ft | 27 kts | 268° |
| 2026-04-23 10:01 | 52.82920 | -1.33339 | 306 ft | 18 kts | 266° |
| 2026-04-23 10:02 | 52.82915 | -1.33543 | 303 ft | 17 kts | 269° |
| 2026-04-23 10:02 | 52.82870 | -1.33611 | 300 ft | 12 kts | 178° |
| 2026-04-23 10:02 | 52.82780 | -1.33607 | 302 ft | 13 kts | 178° |
| 2026-04-23 10:02 | 52.82729 | -1.33581 | 301 ft | 7 kts | 108° |
| 2026-04-23 10:03 | 52.82730 | -1.33508 | 300 ft | 4 kts | 88° |
| 2026-04-23 10:03 | 52.82731 | -1.33496 | 300 ft | 0 kts | 88° |